AirNav   Everest Fuels
 
 1399 users online  

WA84 Auburn Academy Airport
Auburn, Washington, USA

GOING TO AUBURN?


FAA INFORMATION EFFECTIVE 31 DECEMBER 2020

Location

FAA Identifier: WA84
Lat/Long: 47-16-50.3620N 122-08-58.4210W
47-16.839367N 122-08.973683W
47.2806561,-122.1495614
(estimated)
Elevation: 416 ft. / 127 m (estimated)
Variation: 20E (1985)
From city: 3 miles SE of AUBURN, WA
Time zone: UTC -8 (UTC -7 during Daylight Saving Time)
Zip code: 98092

Airport Operations

Airport use: Private use. Permission required prior to landing
Activation date: 05/1969
Control tower: no
ARTCC: SEATTLE CENTER
FSS: SEATTLE FLIGHT SERVICE STATION
Attendance: UNATNDD
Wind indicator: yes
Segmented circle: no

Airport Communications

WX AWOS-3 at PLU (12 nm SW): 128.575 (253-848-2748)
WX ASOS at SEA (12 nm NW): PHONE 206-214-2592
WX ASOS at RNT (13 nm N): 126.95 (425-255-6080)
WX ASOS at TCM (16 nm SW): PHONE 253-982-3434
WX ASOS at BFI (16 nm N): PHONE 206-658-6435
WX ASOS at TIW (17 nm W): 124.05 (253-858-6507)
  • MULTICOM FREQ 122.9

Nearby radio navigation aids

VOR radial/distance  VOR name  Freq  Var
SEAr126/11.3SEATTLE VORTAC116.8019E
TCMr044/15.5MCCHORD VORTAC109.6015E
OLMr040/35.9OLYMPIA VORTAC113.4019E
PAEr152/38.7PAINE VOR/DME110.6020E

Airport Services

Airframe service: NONE
Powerplant service: NONE

Runway Information

Runway 9/27

Dimensions: 2650 x 75 ft. / 808 x 23 m
Surface: turf
RUNWAY 9  RUNWAY 27
Traffic pattern: leftright
Obstructions: 100 ft. pline, 2640 ft. from runway100 ft. trees, 400 ft. from runway

Airport Ownership and Management from official FAA records

Ownership: Privately-owned
Owner: AUBURN ADVENTIST ACADEMY
5000 AUBURN WAY SO
AUBURN, WA 98092
Phone 253-939-5000
Manager: DALE HYDE
5000 AUBURN WAY S.
AUBURN, WA 98092
Phone 253-939-5000

Airport Operational Statistics

Aircraft based on the field: 2
Single engine airplanes: 2
    

Additional Remarks

FOR CD CTC SEATTLE APCH AT 206-214-4794.

Instrument Procedures

There are no published instrument procedures at WA84.

Some nearby airports with instrument procedures:

S50 - Auburn Municipal Airport (4 nm NW)
KPLU - Pierce County Airport - Thun Field (12 nm SW)
KSEA - Seattle-Tacoma International Airport (12 nm NW)
KRNT - Renton Municipal Airport (13 nm N)
KTCM - McChord Field Airport (Joint Base Lewis-McChord) (16 nm SW)
KBFI - Boeing Field/King County International Airport (16 nm N)
KTIW - Tacoma Narrows Airport (17 nm W)
 
Loc | Ops | Rwys | IFR | FBO | Links
Com | Nav | Svcs | Stats | Notes
Area around WA84 (Auburn Academy Airport)
 
Road maps at: MapQuest Bing Google
 
Aerial photo
WARNING: Photo may not be current or correct
Aerial photo of WA84 (Auburn Academy Airport)
Taken in November 2007

Do you have a better or more recent aerial photo of Auburn Academy Airport that you would like to share? If so, please send us your photo.

 
Sectional chart

 
Airport distance calculator
Flying to Auburn Academy Airport? Find the distance to fly.

From to WA84

Sunrise and sunset
Times for 18-Jan-2021
 Local
(UTC-8)
 Zulu
(UTC)
Morning civil twilight07:1615:16
Sunrise07:5015:50
Sunset16:4800:48
Evening civil twilight17:2301:23

Current date and time
Zulu (UTC)  18-Jan-2021 16:47:24
Local (UTC-8)  18-Jan-2021 08:47:24
 
METAR
KPLU 
12nm SW 
181635Z AUTO 00000KT 2 1/2SM BR CLR 01/01 A3054 RMK AO2
KSEA 
12nm NW 
181553Z 03008KT 10SM BKN017 06/04 A3054 RMK AO2 SLP350 T00610039
KRNT 
13nm N 
181602Z 00000KT 5SM SCT020 OVC040 04/03 A3055 RMK AO2 T00440033
KTCM 
16nm SW 
181638Z AUTO 00000KT 1/4SM R16/1000V2400FT FZFG CLR 00/M01 A3055 RMK AO2 SLP352 $
KBFI 
18nm NW 
181553Z 02003KT 10SM BKN020 BKN040 06/04 A3055 RMK AO2 SLP346 T00610039
KTIW 
18nm W 
181553Z AUTO 02005KT 10SM SCT015 05/03 A3054 RMK AO2 SLP345 T00500033
KGRF 
21nm SW 
181638Z AUTO 00000KT 1 3/4SM BR FEW001 00/ A3054 RMK AO2 VIS 1V1 3/4 SLP349 $
TAF
KSEA 
12nm NW 
181138Z 1812/1918 36006KT P6SM BKN045 FM182000 36006KT P6SM SCT050 FM190400 03006KT P6SM SKC
KTCM 
16nm SW 
180608Z 1806/1911 VRB04KT 3200 BR OVC020 QNH3052INS BECMG 1806/1807 VRB04KT 4800 BR BKN015 OVC030 QNH3050INS BECMG 1816/1817 03009KT 0400 FG SCT009 BKN015 OVC035 QNH3048INS BECMG 1818/1819 02006KT 9999 NSW SCT030 QNH3047INS BECMG 1821/1822 03009KT 9999 SCT035 BKN050 QNH3042INS TX08/1821Z TN03/1810Z
KBFI 
18nm NW 
181138Z 1812/1912 00000KT P6SM BKN050 FM182000 32006KT P6SM SCT050 FM190400 VRB03KT P6SM SKC
NOTAMs
Click for the latest NOTAMs
NOTAMs are issued by the DoD/FAA and will open in a separate window not controlled by AirNav.

 

 
 

Would you like to see your business listed on this page?

 If your business provides an interesting product or service to pilots, flight crews, aircraft, or users of the Auburn Academy Airport, you should consider listing it here.  To start the listing process, click on the button below
 
Add a business
 

Other Pages about Auburn Academy Airport

Update a link
 
Copyright © AirNav, LLC. All rights reserved. Privacy Policy  Contact